Latest Coastal Weather Observations for Gabo Island (VIC)

IDN60701

Issued at 9:41 pm EDT Thursday 11 February 2016 (issued every 10 minutes, with the page automatically refreshed every 10 minutes)

About coastal observations | Map of coastal stations | Coastal observations for NSW | Marine services | Other Formats
Station Details ID: 084016 Name: GABO ISLAND LIGHTHOUSE Lat: -37.57 Lon: 149.92 Height: 15.2 m
Data from the previous 72 hours. | See also: Recent months at Gabo Island (VIC)
Date/Time
EDT
Temp

°C
Wind Pressure Rain
since 9am
mm
Weather Cloud Vis
km
Sea
Height
m
Swell
Dir
 
Speed
knots
Gust
knots
hPa Trend Height
m
Period
s
Dir
11/09:30pm 20.6 CALM 0 0 1017.1 - 0.0 - - - - - - -
11/09:00pm 20.8 CALM 0 0 1016.5 - 0.0 Fine Cloudy 30 1 1.0 - -
11/08:30pm 20.8 ESE 2 3 1016.5 - 0.0 - - - - - - -
11/08:00pm 21.0 SSE 3 4 1016.2 - 0.0 - - - - - - -
11/07:30pm 21.2 SSE 3 4 1015.8 - 0.0 - - - - - - -
11/07:00pm 21.3 S 4 4 1015.8 - 0.0 - - - - - - -
11/06:30pm 21.3 S 5 6 1015.6 - 0.0 - - - - - - -
11/06:00pm 21.4 S 6 7 1015.4 - 0.0 - - - - - - -
11/05:30pm 21.5 S 7 8 1015.5 - 0.0 - - - - - - -
11/05:00pm 21.4 S 8 9 1015.3 - 0.0 - - - - - - -
11/04:30pm 21.7 S 8 9 1015.3 - 0.0 - - - - - - -
11/04:00pm 21.7 S 8 9 1015.3 - 0.0 - - - - - - -
11/03:30pm 21.5 SSW 9 10 1015.4 - 0.0 - - - - - - -
11/03:00pm 21.5 SSW 10 12 1015.4 - 0.0 Fine Cloudy 20 1 1.0 - -
11/02:30pm 21.6 SSW 13 15 1015.7 - 0.0 - - - - - - -
11/02:00pm 21.8 SSW 14 16 1016.2 - 0.0 - - - - - - -
11/01:30pm 21.9 SSW 15 17 1016.3 - 0.0 - - - - - - -
11/01:00pm 21.5 SSW 16 18 1016.4 - 0.0 - - - - - - -
11/12:30pm 21.5 SSW 16 18 1016.5 - 0.0 - - - - - - -
11/12:00pm 21.2 SW 16 18 1016.6 - 0.0 - - - - - - -
11/11:30am 21.5 SW 15 18 1016.8 - 0.0 - - - - - - -
11/11:00am 21.2 SW 11 14 1017.0 - 0.0 - - - - - - -
11/10:30am 21.9 WSW 10 14 1017.0 - 0.0 - - - - - - -
11/10:00am 22.5 WSW 14 16 1016.7 - 0.0 - - - - - - -
11/09:30am 21.8 WSW 14 16 1016.6 - 0.0 - - - - - - -
11/09:00am 21.0 WSW 13 15 1016.4 - 0.0 Fine Mostly clear 15 1 1.0 - -
11/08:30am 20.4 WSW 14 17 1016.2 - 0.0 - - - - - - -
11/08:00am 20.0 W 12 15 1016.2 - 0.0 - - - - - - -
11/07:30am 19.4 W 12 15 1015.9 - 0.0 - - - - - - -
11/07:00am 19.0 W 11 14 1015.6 - 0.0 - - - - - - -
11/06:30am 19.3 W 11 14 1015.3 - 0.0 - - - - - - -
11/06:00am 19.4 W 9 11 1015.0 - 0.0 - - - - - - -
11/05:30am 19.3 W 9 11 1014.8 - 0.0 - - - - - - -
11/05:00am 19.3 W 9 11 1014.6 - 0.0 - - - - - - -
11/04:30am 19.4 W 9 11 1014.5 - 0.0 - - - - - - -
11/04:00am 19.1 W 7 8 1014.4 - 0.0 - - - - - - -
11/03:30am 19.1 W 7 9 1014.2 - 0.0 - - - - - - -
11/03:00am 19.4 WSW 6 7 1014.3 - 0.0 Fine Mostly clear 15 1 1.0 - -
11/02:30am 19.5 WSW 6 7 1014.5 - 0.0 - - - - - - -
11/02:00am 19.4 W 7 8 1014.8 - 0.0 - - - - - - -
11/01:30am 19.8 WSW 7 8 1015.0 - 0.0 - - - - - - -
11/01:00am 19.9 WSW 7 8 1015.0 - 0.0 - - - - - - -
11/12:30am 19.9 WSW 6 7 1015.2 - 0.0 - - - - - - -
11/12:00am 19.9 WSW 7 8 1015.2 - 0.0 - - - - - - -
 
Date/Time
EDT
Temp

°C
Wind Pressure Rain
since 9am
mm
Weather Cloud Vis
km
Sea
Height
m
Swell
Dir
 
Speed
knots
Gust
knots
hPa Trend Height
m
Period
s
Dir
10/11:30pm 20.1 WSW 8 9 1015.3 - 0.0 - - - - - - -
10/11:00pm 20.1 WSW 8 10 1015.3 - 0.0 - - - - - - -
10/10:30pm 20.5 SW 4 6 1015.5 - 0.0 - - - - - - -
10/10:00pm 20.5 SW 6 8 1015.6 - 0.0 - - - - - - -
10/09:30pm 20.7 WSW 6 7 1015.4 - 0.0 - - - - - - -
10/09:00pm 21.1 SW 9 10 1015.3 - 0.0 Fine Partly cloudy 15 1 1.0 - -
10/08:30pm 21.1 SW 7 10 1015.2 - 0.0 - - - - - - -
10/08:00pm 21.1 SSW 9 11 1014.8 - 0.0 - - - - - - -
10/07:30pm 21.2 SSW 9 10 1014.5 - 0.0 - - - - - - -
10/07:00pm 21.2 SSW 12 14 1014.1 - 0.0 - - - - - - -
10/06:30pm 21.4 SSW 13 16 1013.7 - 0.0 - - - - - - -
10/06:00pm 21.7 SSW 12 14 1013.3 - 0.0 - - - - - - -
10/05:30pm 21.7 SSW 14 16 1013.2 - 0.0 - - - - - - -
10/05:00pm 21.7 SSW 16 19 1013.1 - 0.0 - - - - - - -
10/04:30pm 21.7 SSW 16 19 1013.0 - 0.0 - - - - - - -
10/04:00pm 22.0 SSW 16 19 1013.2 - 0.0 - - - - - - -
10/03:30pm 22.0 SSW 16 18 1013.1 - 0.0 - - - - - - -
10/03:00pm 22.0 SSW 18 20 1013.1 - 0.0 Fine Mostly cloudy 20 1 1.0 - -
10/02:30pm 22.1 SSW 18 22 1013.2 - 0.0 - - - - - - -
10/02:00pm 22.2 SSW 17 19 1013.4 - 0.0 - - - - - - -
10/01:30pm 22.0 SSW 16 19 1013.5 - 0.0 - - - - - - -
10/01:00pm 22.1 SSW 16 19 1013.7 - 0.0 - - - - - - -
10/12:30pm 22.1 SSW 15 17 1013.9 - 0.0 - - - - - - -
10/12:00pm 22.9 SSW 13 15 1014.0 - 0.0 - - - - - - -
10/11:30am 22.1 SSW 15 17 1014.2 - 0.0 - - - - - - -
10/11:00am 21.8 SSW 14 17 1014.4 - 0.0 - - - - - - -
10/10:30am 22.2 SSW 11 14 1014.5 - 0.0 - - - - - - -
10/10:00am 22.4 SW 7 8 1014.5 - 0.0 - - - - - - -
10/09:30am 21.8 WSW 7 9 1014.4 - 0.0 - - - - - - -
10/09:00am 21.2 WSW 5 6 1014.0 - 0.0 Fine Mostly clear 30 1 1.0 - -
10/08:30am 20.7 W 5 7 1014.0 - 0.0 - - - - - - -
10/08:00am 20.7 N 3 5 1013.8 - 0.0 - - - - - - -
10/07:30am 20.0 N 5 6 1013.5 - 0.0 - - - - - - -
10/07:00am 19.1 N 5 7 1013.6 - 0.0 - - - - - - -
10/06:30am 18.6 N 7 8 1013.5 - 0.0 - - - - - - -
10/06:00am 19.0 N 9 10 1013.4 - 0.0 - - - - - - -
10/05:30am 19.3 N 8 11 1013.4 - 0.0 - - - - - - -
10/05:00am 19.4 N 8 12 1013.2 - 0.0 - - - - - - -
10/04:30am 19.7 N 11 15 1013.2 - 0.0 - - - - - - -
10/04:00am 20.0 NNE 15 18 1013.3 - 0.0 - - - - - - -
10/03:30am 19.9 N 12 17 1013.7 - 0.0 - - - - - - -
10/03:00am 20.0 NNE 14 19 1013.9 - 0.0 Fine Mostly clear 40 1 1.0 - -
10/02:30am 20.0 N 13 17 1014.3 - 0.0 - - - - - - -
10/02:00am 20.0 NNE 14 19 1014.7 - 0.0 - - - - - - -
10/01:30am 20.0 N 12 15 1015.2 - 0.0 - - - - - - -
10/01:00am 20.1 N 11 14 1015.7 - 0.0 - - - - - - -
10/12:30am 20.1 N 10 13 1016.2 - 0.0 - - - - - - -
10/12:00am 20.1 N 11 13 1016.5 - 0.0 - - - - - - -
 
Date/Time
EDT
Temp

°C
Wind Pressure Rain
since 9am
mm
Weather Cloud Vis
km
Sea
Height
m
Swell
Dir
 
Speed
knots
Gust
knots
hPa Trend Height
m
Period
s
Dir
09/11:30pm 20.2 NNE 11 14 1016.9 - 0.0 - - - - - - -
09/11:00pm 20.3 NNE 12 14 1017.2 - 0.0 - - - - - - -
09/10:30pm 20.4 NNE 12 16 1017.5 - 0.0 - - - - - - -
09/10:00pm 20.7 NNE 13 16 1017.6 - 0.0 - - - - - - -
09/09:30pm 20.9 NNE 15 19 1017.6 - 0.0 - - - - - - -
09/09:00pm 21.1 NNE 17 20 1017.5 - 0.0 Fine Mostly clear 40 1 1.0 - -
09/08:30pm 21.3 NNE 17 20 1017.5 - 0.0 - - - - - - -
09/08:00pm 21.5 NE 17 21 1017.5 - 0.0 - - - - - - -
09/07:30pm 21.6 NE 17 21 1017.5 - 0.0 - - - - - - -
09/07:00pm 21.8 NE 17 19 1017.5 - 0.0 - - - - - - -
09/06:30pm 22.0 NE 16 18 1017.5 - 0.0 - - - - - - -
09/06:00pm 22.4 NE 13 15 1017.7 - 0.0 - - - - - - -
09/05:30pm 22.4 ENE 13 14 1018.1 - 0.0 - - - - - - -
09/05:00pm 22.8 E 11 12 1018.5 - 0.0 - - - - - - -
09/04:30pm 22.9 E 9 12 1018.9 - 0.0 - - - - - - -
09/04:00pm 23.1 E 9 11 1019.2 - 0.0 - - - - - - -
09/03:30pm 23.4 ESE 7 10 1019.5 - 0.0 - - - - - - -
09/03:00pm 23.5 SE 7 9 1019.7 - 0.0 Fine Mostly clear 40 1 1.0 - -
09/02:30pm 23.4 SSE 8 11 1020.2 - 0.0 - - - - - - -
09/02:00pm 22.9 SSE 9 11 1020.6 - 0.0 - - - - - - -
09/01:30pm 23.5 S 10 11 1020.9 - 0.0 - - - - - - -
09/01:00pm 23.5 S 10 11 1021.0 - 0.0 - - - - - - -
09/12:30pm 23.3 SSW 10 11 1021.3 - 0.0 - - - - - - -
09/12:00pm 22.0 SSW 8 9 1021.5 - 0.0 - - - - - - -
09/11:30am 22.0 SW 7 9 1021.7 - 0.0 - - - - - - -
09/11:00am 22.2 WSW 8 9 1021.8 - 0.0 - - - - - - -
09/10:30am 22.1 W 9 11 1021.9 - 0.0 - - - - - - -
09/10:00am 21.5 W 9 11 1022.0 - 0.0 - - - - - - -
09/09:30am 20.9 W 10 12 1022.0 - 0.0 - - - - - - -
09/09:00am 20.2 WNW 10 12 1021.8 - 0.0 Fine Partly cloudy 40 1 1.0 - -
09/08:30am 19.1 WNW 9 11 1021.8 - 0.0 - - - - - - -
09/08:00am 17.8 WNW 9 13 1021.7 - 0.0 - - - - - - -
09/07:30am 17.1 WNW 10 12 1021.5 - 0.0 - - - - - - -
09/07:00am 17.1 WNW 11 14 1021.3 - 0.0 - - - - - - -
09/06:30am 17.4 W 12 15 1021.1 - 0.0 - - - - - - -
09/06:00am 17.0 WNW 9 14 1020.7 - 0.0 - - - - - - -
09/05:30am 17.7 W 14 17 1020.6 - 0.0 - - - - - - -
09/05:00am 17.6 W 14 19 1020.3 - 0.0 - - - - - - -
09/04:30am 17.6 W 15 19 1020.3 - 0.0 - - - - - - -
09/04:00am 17.9 W 15 19 1020.1 - 0.0 - - - - - - -
09/03:30am 17.9 W 16 20 1020.1 - 0.0 - - - - - - -
09/03:00am 18.1 W 15 19 1020.2 - 0.0 - - - - - - -
09/02:30am 18.2 W 15 19 1020.4 - 0.0 - - - - - - -
09/02:00am 18.4 W 16 20 1020.6 - 0.0 - - - - - - -
09/01:30am 18.6 W 14 17 1020.9 - 0.0 - - - - - - -
09/01:00am 18.6 W 14 17 1021.0 - 0.0 - - - - - - -
09/12:30am 18.8 W 14 16 1021.0 - 0.0 - - - - - - -
09/12:00am 18.6 W 13 16 1021.1 - 0.0 - - - - - - -
 
Date/Time
EDT
Temp

°C
Wind Pressure Rain
since 9am
mm
Weather Cloud Vis
km
Sea
Height
m
Swell
Dir
 
Speed
knots
Gust
knots
hPa Trend Height
m
Period
s
Dir
08/11:30pm 19.0 W 13 15 1021.1 - 0.0 - - - - - - -
08/11:00pm 19.5 W 13 16 1021.2 - 0.0 - - - - - - -
08/10:30pm 19.5 W 13 16 1021.1 - 0.0 - - - - - - -
08/10:00pm 19.6 WSW 13 15 1020.9 - 0.0 - - - - - - -

Other Formats:

Comma delimited format used in spreadsheet applications
http://www.bom.gov.au/fwo/IDN60701/IDN60701.94933.axf

JavaScript Object Notation format (JSON) in row-major order
http://www.bom.gov.au/fwo/IDN60701/IDN60701.94933.json